createdAt,value
2022-09-21T18:38:39.617Z,81.70
2022-09-21T18:41:31.889Z,82.80
2022-09-21T18:44:18.694Z,82.80
2022-09-21T18:46:49.069Z,83.00
2022-09-21T18:49:19.766Z,83.20
2022-09-21T18:52:14.159Z,83.10
2022-09-21T18:54:43.617Z,83.40
2022-09-21T18:57:12.626Z,83.40
2022-09-21T18:59:41.202Z,83.70
2022-09-21T19:02:16.345Z,84.00
2022-09-21T19:04:44.874Z,84.30
2022-09-21T19:07:17.838Z,84.40
2022-09-21T19:10:09.235Z,84.50
2022-09-21T19:12:55.696Z,84.50
2022-09-21T19:16:00.320Z,84.60
2022-09-21T19:18:30.785Z,84.80
2022-09-21T19:21:27.112Z,85.00
2022-09-21T19:24:18.445Z,85.30
2022-09-21T19:27:05.516Z,85.50
2022-09-21T19:30:07.103Z,85.70
2022-09-21T19:32:43.048Z,85.90
2022-09-21T19:35:32.062Z,86.30
2022-09-21T19:38:02.062Z,86.10
2022-09-21T19:40:39.146Z,86.40
2022-09-21T19:43:44.166Z,86.70
2022-09-21T19:46:34.406Z,87.10
2022-09-21T19:49:11.400Z,87.30
2022-09-21T19:51:48.407Z,88.00
2022-09-21T19:54:36.207Z,88.10
2022-09-21T19:57:33.462Z,88.30
2022-09-21T20:00:01.842Z,88.30
2022-09-21T20:02:34.520Z,88.40
2022-09-21T20:05:05.658Z,88.70
2022-09-21T20:07:43.018Z,88.90
2022-09-21T20:10:17.230Z,88.90
2022-09-21T20:12:54.016Z,89.00
2022-09-21T20:15:29.000Z,89.30
2022-09-21T20:18:17.176Z,89.00
2022-09-21T20:20:45.274Z,89.60
2022-09-21T20:23:13.764Z,89.60
2022-09-21T20:25:47.757Z,89.90
2022-09-21T20:28:15.973Z,89.90
2022-09-21T20:30:44.480Z,90.00
2022-09-21T20:33:14.703Z,90.00
2022-09-21T20:35:43.540Z,90.20
2022-09-21T20:38:11.886Z,90.30
2022-09-21T20:40:40.386Z,90.30
2022-09-21T20:43:11.777Z,90.40
2022-09-21T20:45:41.104Z,90.30
2022-09-21T20:48:15.882Z,90.40
2022-09-21T20:50:44.912Z,90.70
2022-09-21T20:53:13.163Z,90.80
2022-09-21T20:55:41.516Z,90.90
2022-09-21T20:58:13.297Z,91.00
2022-09-21T21:00:41.459Z,90.90
2022-09-21T21:03:09.470Z,90.90
2022-09-21T21:05:37.984Z,90.90
2022-09-21T21:08:06.189Z,91.00
2022-09-21T21:10:34.634Z,91.10
2022-09-21T21:13:02.614Z,91.00
2022-09-21T21:15:31.673Z,91.10
2022-09-21T21:17:59.579Z,91.30
2022-09-21T21:20:29.353Z,91.30
2022-09-21T21:22:58.078Z,91.40
2022-09-21T21:25:26.013Z,91.40
2022-09-21T21:27:57.727Z,91.50
2022-09-21T21:30:25.903Z,91.40
2022-09-21T21:32:56.159Z,91.50
2022-09-21T21:35:24.170Z,91.60
2022-09-21T21:37:55.552Z,91.60
2022-09-21T21:40:26.227Z,91.70
2022-09-21T21:42:55.537Z,91.70
2022-09-21T21:45:23.734Z,92.00
2022-09-21T21:47:51.784Z,92.00
2022-09-21T21:50:19.725Z,92.00
2022-09-21T21:52:47.791Z,92.00
2022-09-21T21:55:15.800Z,92.10
2022-09-21T21:57:43.719Z,92.20
2022-09-21T22:00:12.523Z,92.40
2022-09-21T22:02:40.546Z,92.60
2022-09-21T22:05:08.826Z,92.50
2022-09-21T22:07:38.091Z,92.50
2022-09-21T22:10:08.791Z,92.60
2022-09-21T22:12:36.943Z,92.80
2022-09-21T22:15:05.190Z,92.80
2022-09-21T22:17:33.296Z,92.90
2022-09-21T22:20:01.539Z,93.10
2022-09-21T22:22:29.574Z,93.10
2022-09-21T22:24:57.571Z,93.20
2022-09-21T22:27:26.685Z,93.20
2022-09-21T22:29:55.032Z,93.30
2022-09-21T22:32:23.022Z,93.50
2022-09-21T22:34:50.914Z,93.40
2022-09-21T22:37:18.941Z,93.50
2022-09-21T22:39:47.220Z,93.50
2022-09-21T22:42:15.132Z,93.80
2022-09-21T22:44:43.069Z,93.70
2022-09-21T22:47:11.017Z,93.90
2022-09-21T22:49:38.954Z,93.90
2022-09-21T22:52:09.352Z,93.80
2022-09-21T22:54:40.561Z,93.90
2022-09-21T22:57:08.560Z,94.00
2022-09-21T22:59:36.550Z,94.20
2022-09-21T23:02:04.435Z,94.30
2022-09-21T23:04:32.520Z,94.30
2022-09-21T23:07:00.400Z,94.60
2022-09-21T23:09:28.382Z,94.40
2022-09-21T23:11:56.362Z,94.60
2022-09-21T23:14:24.409Z,94.50
2022-09-21T23:16:53.190Z,94.60
2022-09-21T23:19:21.277Z,94.70
2022-09-21T23:21:50.298Z,94.80
2022-09-21T23:24:18.974Z,94.80
2022-09-21T23:26:47.198Z,94.80
2022-09-21T23:29:15.655Z,95.10
2022-09-21T23:31:45.389Z,95.00
2022-09-21T23:34:14.571Z,95.00
2022-09-21T23:36:43.398Z,95.20
2022-09-21T23:39:12.265Z,95.30
2022-09-21T23:41:40.227Z,95.50
2022-09-21T23:44:08.417Z,95.40
2022-09-21T23:46:37.471Z,95.60
2022-09-21T23:49:05.561Z,95.70
2022-09-21T23:51:33.735Z,95.70
2022-09-21T23:54:01.950Z,95.90
2022-09-21T23:56:30.583Z,95.80
2022-09-21T23:58:58.937Z,95.90
